Time;durP1;ratioP1;P1;durP2;ratioP2;P2;SDS_P1;SDS_P2;PMS_P1;PMS_P2;Temp;Humidity;BMP_temperature;BMP_pressure;BME280_temperature;BME280_humidity;BME280_pressure;Samples;Min_cycle;Max_cycle;Signal;HPM_P1;HPM_P2
2022/06/10 00:00:14;;;;;;;45.35;9.80;;;;;;;;;;5079100;28;20044;-52
2022/06/10 00:02:44;;;;;;;43.28;10.35;;;;;;;;;;5086412;28;20059;-55
2022/06/10 00:05:13;;;;;;;43.92;10.27;;;;;;;;;;5086734;28;20064;-56
2022/06/10 00:07:40;;;;;;;59.95;10.68;;;;;;;;;;5090220;28;20493;-59
2022/06/10 00:10:07;;;;;;;52.78;10.32;;;;;;;;;;5079138;28;20575;-57
2022/06/10 00:12:34;;;;;;;50.67;10.45;;;;;;;;;;5088489;28;20389;-58
2022/06/10 00:15:01;;;;;;;53.38;10.43;;;;;;;;;;5085765;28;20366;-58
2022/06/10 00:17:28;;;;;;;54.88;10.50;;;;;;;;;;5089980;28;20114;-58
2022/06/10 00:19:55;;;;;;;41.45;9.50;;;;;;;;;;5090229;28;20390;-58
2022/06/10 00:22:22;;;;;;;51.13;10.43;;;;;;;;;;5082665;28;20107;-57
2022/06/10 00:24:51;;;;;;;42.55;10.23;;;;;;;;;;5063862;28;20516;-60
2022/06/10 00:27:19;;;;;;;50.47;10.98;;;;;;;;;;5055572;28;20451;-58
2022/06/10 00:29:47;;;;;;;54.05;11.18;;;;;;;;;;5070608;28;20024;-60
2022/06/10 00:32:15;;;;;;;48.80;10.07;;;;;;;;;;5075878;28;20027;-57
2022/06/10 00:34:42;;;;;;;51.47;11.27;;;;;;;;;;5070956;28;20021;-60
2022/06/10 00:37:09;;;;;;;61.03;11.60;;;;;;;;;;5070930;28;20024;-60
2022/06/10 00:39:36;;;;;;;55.60;11.75;;;;;;;;;;5072391;28;20423;-58
2022/06/10 00:42:05;;;;;;;55.60;12.18;;;;;;;;;;5072173;28;20531;-58
2022/06/10 00:44:37;;;;;;;53.67;11.55;;;;;;;;;;5069127;28;20023;-58
2022/06/10 00:47:15;;;;;;;60.17;13.25;;;;;;;;;;5076434;28;20517;-60
2022/06/10 00:49:44;;;;;;;55.90;12.40;;;;;;;;;;5070125;28;20040;-56
2022/06/10 00:52:24;;;;;;;58.78;13.70;;;;;;;;;;5070008;28;20024;-56
2022/06/10 00:54:52;;;;;;;52.50;13.15;;;;;;;;;;5074217;28;20162;-58
2022/06/10 00:57:33;;;;;;;50.83;13.95;;;;;;;;;;5072311;28;20141;-51
2022/06/10 01:00:04;;;;;;;68.28;14.77;;;;;;;;;;5070439;28;20044;-52
2022/06/10 01:02:32;;;;;;;59.75;14.18;;;;;;;;;;5081570;28;20034;-54
2022/06/10 01:05:05;;;;;;;65.78;18.40;;;;;;;;;;5089974;28;20032;-57
2022/06/10 01:07:33;;;;;;;78.60;18.85;;;;;;;;;;5085634;28;20059;-55
2022/06/10 01:10:02;;;;;;;69.50;19.58;;;;;;;;;;5085521;28;20555;-55
2022/06/10 01:12:32;;;;;;;73.45;20.30;;;;;;;;;;5085736;28;20825;-55
2022/06/10 01:14:59;;;;;;;68.60;19.38;;;;;;;;;;5080614;28;20070;-54
2022/06/10 01:17:32;;;;;;;77.30;19.52;;;;;;;;;;5088364;28;20020;-55
2022/06/10 01:20:17;;;;;;;64.20;19.35;;;;;;;;;;5090414;28;20060;-55
2022/06/10 01:23:17;;;;;;;61.78;18.58;;;;;;;;;;5083389;28;20414;-55
2022/06/10 01:25:44;;;;;;;67.43;18.88;;;;;;;;;;5032191;28;20042;-56
2022/06/10 01:28:14;;;;;;;72.75;18.08;;;;;;;;;;5082416;28;20062;-53
2022/06/10 01:30:46;;;;;;;68.82;17.45;;;;;;;;;;5084435;28;20119;-51
2022/06/10 01:33:30;;;;;;;82.20;18.05;;;;;;;;;;5077320;28;20043;-59
2022/06/10 01:36:03;;;;;;;57.95;17.02;;;;;;;;;;5084456;28;20029;-58
2022/06/10 01:38:44;;;;;;;59.25;16.83;;;;;;;;;;5086586;28;20043;-57
2022/06/10 01:41:15;;;;;;;64.18;16.92;;;;;;;;;;5083656;28;20152;-58
2022/06/10 01:43:52;;;;;;;68.85;16.75;;;;;;;;;;5085374;28;20070;-58
2022/06/10 01:46:25;;;;;;;71.20;16.80;;;;;;;;;;5088200;28;20060;-52
2022/06/10 01:48:57;;;;;;;67.75;15.38;;;;;;;;;;5080747;28;20048;-55
2022/06/10 01:51:27;;;;;;;61.38;15.07;;;;;;;;;;5084914;28;20042;-55
2022/06/10 01:54:01;;;;;;;57.97;14.95;;;;;;;;;;5088276;28;20401;-59
2022/06/10 01:56:35;;;;;;;48.72;14.20;;;;;;;;;;5090002;28;20106;-58
2022/06/10 01:59:05;;;;;;;46.10;13.63;;;;;;;;;;5089429;28;20094;-57
2022/06/10 02:01:40;;;;;;;56.17;14.93;;;;;;;;;;5090433;28;20508;-53
2022/06/10 02:04:07;;;;;;;54.30;14.02;;;;;;;;;;5102698;28;20115;-57
2022/06/10 02:06:37;;;;;;;55.33;14.82;;;;;;;;;;5103060;28;20028;-58
2022/06/10 02:09:15;;;;;;;53.08;13.25;;;;;;;;;;5090940;28;20530;-57
2022/06/10 02:11:44;;;;;;;45.53;13.63;;;;;;;;;;5090945;28;20051;-56
2022/06/10 02:14:17;;;;;;;54.13;13.80;;;;;;;;;;5071926;28;20421;-56
2022/06/10 02:16:46;;;;;;;43.92;13.27;;;;;;;;;;5090736;28;20020;-58
2022/06/10 02:19:22;;;;;;;47.38;12.90;;;;;;;;;;5088440;28;20469;-57
2022/06/10 02:22:05;;;;;;;46.67;13.32;;;;;;;;;;5088135;28;20040;-57
2022/06/10 02:25:01;;;;;;;43.35;12.82;;;;;;;;;;5088974;28;20028;-58
2022/06/10 02:27:31;;;;;;;41.35;12.25;;;;;;;;;;5071069;28;20404;-56
2022/06/10 02:29:58;;;;;;;55.65;13.13;;;;;;;;;;5090528;28;20028;-56
2022/06/10 02:32:25;;;;;;;42.83;12.98;;;;;;;;;;5089812;28;20078;-57
2022/06/10 02:34:54;;;;;;;46.42;12.02;;;;;;;;;;5089894;28;20028;-56
2022/06/10 02:37:24;;;;;;;47.35;13.48;;;;;;;;;;5090127;28;20081;-55
2022/06/10 02:39:59;;;;;;;41.92;11.88;;;;;;;;;;5090234;28;20036;-56
2022/06/10 02:42:31;;;;;;;42.95;12.07;;;;;;;;;;5089713;28;20036;-57
2022/06/10 02:45:12;;;;;;;47.67;11.40;;;;;;;;;;5087321;28;20036;-56
2022/06/10 02:47:43;;;;;;;37.20;11.82;;;;;;;;;;5093648;28;20058;-54
2022/06/10 02:50:14;;;;;;;34.72;11.32;;;;;;;;;;5093350;28;20020;-56
2022/06/10 02:52:41;;;;;;;43.13;11.88;;;;;;;;;;5091617;28;20051;-57
2022/06/10 02:55:12;;;;;;;47.47;11.82;;;;;;;;;;5093133;28;20028;-56
2022/06/10 03:03:22;;;;;;;43.40;11.60;;;;;;;;;;5091075;28;20075;-57
2022/06/10 03:05:49;;;;;;;35.25;11.20;;;;;;;;;;5093904;28;20040;-57
2022/06/10 03:08:23;;;;;;;43.25;10.85;;;;;;;;;;5093232;28;20028;-57
2022/06/10 03:11:00;;;;;;;41.03;11.35;;;;;;;;;;5093602;28;20555;-55
2022/06/10 03:13:30;;;;;;;42.85;11.98;;;;;;;;;;5093666;28;20082;-55
2022/06/10 03:16:04;;;;;;;34.83;10.40;;;;;;;;;;5093436;28;20028;-57
2022/06/10 03:18:30;;;;;;;46.08;10.65;;;;;;;;;;5093187;28;20040;-53
2022/06/10 03:21:10;;;;;;;32.58;10.55;;;;;;;;;;5092987;28;20028;-54
2022/06/10 03:23:37;;;;;;;33.90;11.00;;;;;;;;;;5073431;28;20112;-53
2022/06/10 03:26:07;;;;;;;38.72;10.15;;;;;;;;;;5093464;28;20024;-56
2022/06/10 03:28:42;;;;;;;30.55;9.32;;;;;;;;;;5090876;28;20448;-56
2022/06/10 03:31:14;;;;;;;35.65;9.80;;;;;;;;;;5093382;28;20020;-55
2022/06/10 03:33:41;;;;;;;30.95;9.10;;;;;;;;;;5093125;28;20035;-53
2022/06/10 03:36:13;;;;;;;28.77;9.52;;;;;;;;;;5093062;28;20107;-57
2022/06/10 03:38:42;;;;;;;30.95;9.55;;;;;;;;;;5093222;28;20039;-55
2022/06/10 03:41:09;;;;;;;35.22;10.00;;;;;;;;;;5093537;28;20470;-54
2022/06/10 03:43:38;;;;;;;26.25;8.50;;;;;;;;;;5092601;28;20030;-52
2022/06/10 03:46:12;;;;;;;23.85;8.57;;;;;;;;;;5093466;28;20025;-57
2022/06/10 03:48:41;;;;;;;32.10;8.93;;;;;;;;;;5090616;28;20036;-54
2022/06/10 03:51:09;;;;;;;42.58;9.40;;;;;;;;;;5093005;28;20031;-51
2022/06/10 03:53:35;;;;;;;28.50;8.82;;;;;;;;;;5093094;28;20103;-54
2022/06/10 03:56:02;;;;;;;26.92;8.82;;;;;;;;;;5092357;28;20114;-56
2022/06/10 03:58:29;;;;;;;21.70;7.57;;;;;;;;;;5092576;28;20398;-52
2022/06/10 04:00:58;;;;;;;30.90;8.75;;;;;;;;;;5092244;28;20129;-56
2022/06/10 04:03:25;;;;;;;26.90;8.10;;;;;;;;;;5090363;28;20039;-56
2022/06/10 04:05:52;;;;;;;25.08;8.00;;;;;;;;;;5092701;28;20028;-58
2022/06/10 04:08:19;;;;;;;24.83;7.20;;;;;;;;;;5092382;28;20064;-54
2022/06/10 04:10:46;;;;;;;22.65;6.90;;;;;;;;;;5074596;28;20044;-56
2022/06/10 04:13:17;;;;;;;24.00;7.18;;;;;;;;;;5092230;28;20020;-55
2022/06/10 04:15:45;;;;;;;27.38;7.05;;;;;;;;;;5089762;28;20035;-53
2022/06/10 04:18:12;;;;;;;21.38;7.18;;;;;;;;;;5092651;28;20435;-56
2022/06/10 04:20:39;;;;;;;25.13;7.25;;;;;;;;;;5092020;28;20023;-55
2022/06/10 04:23:07;;;;;;;18.55;6.32;;;;;;;;;;5092640;28;20478;-55
2022/06/10 04:25:35;;;;;;;22.05;6.90;;;;;;;;;;5091665;28;20039;-57
2022/06/10 04:28:02;;;;;;;21.70;6.75;;;;;;;;;;5092778;28;20031;-53
2022/06/10 04:30:30;;;;;;;20.23;6.90;;;;;;;;;;5092542;28;20016;-53
2022/06/10 04:32:58;;;;;;;17.45;6.88;;;;;;;;;;5092193;28;20073;-52
2022/06/10 04:35:25;;;;;;;24.35;6.70;;;;;;;;;;5092699;28;20422;-55
2022/06/10 04:37:52;;;;;;;26.00;7.20;;;;;;;;;;5092500;28;20481;-52
2022/06/10 04:40:21;;;;;;;19.20;6.72;;;;;;;;;;5092490;28;20505;-56
2022/06/10 04:42:49;;;;;;;23.05;6.53;;;;;;;;;;5092589;28;20414;-51
2022/06/10 04:45:18;;;;;;;21.58;6.30;;;;;;;;;;5092193;28;20028;-57
2022/06/10 04:47:45;;;;;;;19.75;6.35;;;;;;;;;;5092884;28;20032;-53
2022/06/10 04:50:14;;;;;;;19.60;6.35;;;;;;;;;;5092429;28;20034;-55
2022/06/10 04:52:41;;;;;;;17.15;6.40;;;;;;;;;;5092513;28;20032;-53
2022/06/10 04:55:08;;;;;;;19.80;6.25;;;;;;;;;;5092296;28;20036;-53
2022/06/10 04:57:36;;;;;;;19.17;6.22;;;;;;;;;;5092269;28;20032;-53
2022/06/10 05:00:05;;;;;;;19.98;6.15;;;;;;;;;;5092223;28;20047;-57
2022/06/10 05:02:34;;;;;;;21.33;6.10;;;;;;;;;;5092186;28;20577;-53
2022/06/10 05:05:01;;;;;;;14.95;5.68;;;;;;;;;;5092036;28;20036;-52
2022/06/10 05:07:28;;;;;;;15.35;6.32;;;;;;;;;;5092041;28;20032;-52
2022/06/10 05:09:55;;;;;;;16.08;5.20;;;;;;;;;;5091544;28;20582;-54
2022/06/10 05:12:22;;;;;;;14.18;5.47;;;;;;;;;;5051633;28;20124;-52
2022/06/10 05:14:49;;;;;;;17.52;5.68;;;;;;;;;;5051928;28;20057;-55
2022/06/10 05:17:16;;;;;;;17.15;5.82;;;;;;;;;;5051880;28;20037;-53
2022/06/10 05:19:44;;;;;;;19.77;5.70;;;;;;;;;;5051847;28;20120;-57
2022/06/10 05:22:11;;;;;;;17.25;5.85;;;;;;;;;;5051184;28;20064;-55
2022/06/10 05:24:38;;;;;;;15.90;5.20;;;;;;;;;;5052067;28;20558;-55
2022/06/10 05:27:05;;;;;;;12.98;5.07;;;;;;;;;;5052085;28;20537;-53
2022/06/10 05:29:32;;;;;;;18.05;4.78;;;;;;;;;;5052012;28;20048;-55
2022/06/10 05:31:59;;;;;;;17.65;5.22;;;;;;;;;;5052480;28;20032;-54
2022/06/10 05:34:44;;;;;;;12.70;5.00;;;;;;;;;;5051320;28;20067;-50
2022/06/10 05:37:12;;;;;;;14.15;4.45;;;;;;;;;;5052334;28;20052;-55
2022/06/10 05:39:39;;;;;;;16.30;5.30;;;;;;;;;;5051677;28;20119;-54
2022/06/10 05:42:06;;;;;;;17.45;5.38;;;;;;;;;;5051871;28;20028;-52
2022/06/10 05:44:34;;;;;;;12.48;4.63;;;;;;;;;;5051406;28;20033;-55
2022/06/10 05:47:01;;;;;;;15.00;4.45;;;;;;;;;;5051339;28;20506;-54
2022/06/10 05:49:29;;;;;;;18.85;4.68;;;;;;;;;;5051187;28;20145;-56
2022/06/10 05:51:56;;;;;;;11.02;4.70;;;;;;;;;;5051465;28;20037;-56
2022/06/10 05:54:24;;;;;;;11.65;4.25;;;;;;;;;;5051706;28;20040;-54
2022/06/10 05:56:51;;;;;;;10.52;4.20;;;;;;;;;;5051633;28;20104;-57
2022/06/10 05:59:18;;;;;;;12.60;4.32;;;;;;;;;;5051406;28;20044;-57
2022/06/10 06:01:46;;;;;;;11.77;3.72;;;;;;;;;;5052726;28;20368;-57
2022/06/10 06:04:13;;;;;;;8.10;3.40;;;;;;;;;;5052883;28;20066;-56
2022/06/10 06:06:41;;;;;;;15.50;4.90;;;;;;;;;;5053106;28;20071;-56
2022/06/10 06:09:08;;;;;;;10.57;4.28;;;;;;;;;;5051534;28;20025;-55
2022/06/10 06:11:35;;;;;;;10.30;4.07;;;;;;;;;;5077505;28;20047;-57
2022/06/10 06:14:02;;;;;;;17.35;4.70;;;;;;;;;;5091657;28;20032;-57
2022/06/10 06:16:28;;;;;;;8.65;3.90;;;;;;;;;;5091681;28;20056;-57
2022/06/10 06:18:55;;;;;;;8.98;4.00;;;;;;;;;;5091128;28;20062;-57
2022/06/10 06:21:22;;;;;;;11.30;4.03;;;;;;;;;;5093047;28;20031;-52
2022/06/10 06:23:49;;;;;;;12.40;4.07;;;;;;;;;;5094572;28;20032;-57
2022/06/10 06:26:16;;;;;;;12.43;4.10;;;;;;;;;;5077387;28;20043;-53
2022/06/10 06:28:44;;;;;;;9.52;4.00;;;;;;;;;;5095376;28;20034;-57
2022/06/10 06:31:11;;;;;;;13.10;4.15;;;;;;;;;;5094940;28;20028;-55
2022/06/10 06:33:38;;;;;;;11.48;4.22;;;;;;;;;;5095403;28;20034;-57
2022/06/10 06:36:06;;;;;;;9.02;3.58;;;;;;;;;;5094271;28;20032;-55
2022/06/10 06:38:33;;;;;;;8.60;3.70;;;;;;;;;;5095166;28;20036;-55
2022/06/10 06:41:00;;;;;;;12.07;3.65;;;;;;;;;;5095163;28;20032;-56
2022/06/10 06:43:27;;;;;;;8.48;3.05;;;;;;;;;;5094827;28;20035;-54
2022/06/10 06:45:54;;;;;;;8.30;3.40;;;;;;;;;;5094722;28;20490;-56
2022/06/10 06:48:21;;;;;;;9.05;3.58;;;;;;;;;;5094741;28;20027;-56
2022/06/10 06:50:50;;;;;;;7.93;3.40;;;;;;;;;;5094832;28;20050;-52
2022/06/10 06:53:18;;;;;;;7.47;3.20;;;;;;;;;;5094672;28;20024;-55
2022/06/10 06:55:45;;;;;;;8.73;3.00;;;;;;;;;;5094546;28;20123;-56
2022/06/10 06:58:14;;;;;;;12.18;3.60;;;;;;;;;;5094468;28;20390;-56
2022/06/10 07:00:41;;;;;;;9.07;2.83;;;;;;;;;;5094517;28;20058;-55
2022/06/10 07:03:08;;;;;;;8.38;3.42;;;;;;;;;;5094669;28;20485;-54
2022/06/10 07:05:35;;;;;;;9.63;3.35;;;;;;;;;;5094265;28;20028;-56
2022/06/10 07:08:02;;;;;;;8.73;3.20;;;;;;;;;;5094625;28;20024;-56
2022/06/10 07:10:30;;;;;;;8.05;3.22;;;;;;;;;;5094112;28;20043;-56
2022/06/10 07:12:57;;;;;;;8.73;3.05;;;;;;;;;;5076231;28;20447;-55
2022/06/10 07:15:24;;;;;;;5.57;2.50;;;;;;;;;;5094429;28;20110;-57
2022/06/10 07:17:51;;;;;;;7.72;2.85;;;;;;;;;;5093794;28;20040;-55
2022/06/10 07:20:24;;;;;;;8.25;2.75;;;;;;;;;;5094415;28;20444;-57
2022/06/10 07:22:51;;;;;;;6.10;2.70;;;;;;;;;;5093885;28;20105;-55
2022/06/10 07:25:19;;;;;;;6.53;2.83;;;;;;;;;;5094038;28;20126;-56
2022/06/10 07:27:46;;;;;;;6.80;2.90;;;;;;;;;;5094187;28;20032;-57
2022/06/10 07:30:15;;;;;;;7.22;3.00;;;;;;;;;;5093481;28;20039;-54
2022/06/10 07:32:42;;;;;;;5.90;2.40;;;;;;;;;;5094049;28;20538;-56
2022/06/10 07:35:09;;;;;;;8.95;2.50;;;;;;;;;;5093442;28;20023;-54
2022/06/10 07:37:36;;;;;;;5.78;2.75;;;;;;;;;;5093968;28;20114;-57
2022/06/10 07:40:04;;;;;;;8.98;2.70;;;;;;;;;;5093843;28;20075;-57
2022/06/10 07:42:34;;;;;;;6.55;2.50;;;;;;;;;;5093561;28;20053;-56
2022/06/10 07:45:02;;;;;;;7.35;2.78;;;;;;;;;;5094085;28;20032;-57
2022/06/10 07:47:29;;;;;;;7.10;2.90;;;;;;;;;;5093428;28;20539;-56
2022/06/10 07:49:56;;;;;;;6.35;2.50;;;;;;;;;;5093936;28;20043;-57
2022/06/10 07:52:25;;;;;;;7.03;2.60;;;;;;;;;;5093970;28;20039;-58
2022/06/10 07:54:52;;;;;;;5.70;2.50;;;;;;;;;;5093029;28;20036;-57
2022/06/10 07:57:19;;;;;;;7.38;2.88;;;;;;;;;;5093936;28;20465;-57
2022/06/10 07:59:46;;;;;;;7.63;3.00;;;;;;;;;;5092760;28;20440;-58
2022/06/10 08:02:13;;;;;;;8.85;2.70;;;;;;;;;;5093777;28;20401;-58
2022/06/10 08:04:40;;;;;;;7.28;3.03;;;;;;;;;;5093379;28;20024;-57
2022/06/10 08:07:07;;;;;;;7.82;3.28;;;;;;;;;;5093049;28;20032;-55
2022/06/10 08:09:34;;;;;;;6.85;3.30;;;;;;;;;;5092729;28;20065;-57
2022/06/10 08:12:01;;;;;;;6.78;3.25;;;;;;;;;;5093160;28;20044;-58
2022/06/10 08:14:28;;;;;;;6.78;3.15;;;;;;;;;;5092857;28;20417;-58
2022/06/10 08:16:56;;;;;;;8.05;3.72;;;;;;;;;;5093322;28;20032;-56
2022/06/10 08:19:23;;;;;;;8.02;3.10;;;;;;;;;;5092270;28;20417;-57
2022/06/10 08:24:52;;;;;;;6.55;3.13;;;;;;;;;;5030450;28;20048;-58
2022/06/10 08:27:19;;;;;;;8.73;3.75;;;;;;;;;;5080279;28;20041;-57
2022/06/10 08:29:46;;;;;;;8.23;3.47;;;;;;;;;;5093261;28;20032;-55
2022/06/10 08:32:13;;;;;;;8.05;3.65;;;;;;;;;;5092265;28;20024;-56
2022/06/10 08:34:43;;;;;;;10.57;4.38;;;;;;;;;;5093006;28;20024;-56
2022/06/10 08:37:10;;;;;;;8.40;4.28;;;;;;;;;;5074057;28;20047;-57
2022/06/10 08:39:37;;;;;;;8.05;4.28;;;;;;;;;;5092544;28;20137;-57
2022/06/10 08:42:23;;;;;;;8.95;4.70;;;;;;;;;;5092645;28;20099;-56
2022/06/10 08:44:57;;;;;;;11.20;4.75;;;;;;;;;;5091675;28;20409;-55
2022/06/10 08:47:27;;;;;;;11.20;5.15;;;;;;;;;;5092426;28;20047;-56
2022/06/10 08:50:00;;;;;;;9.73;4.88;;;;;;;;;;5092342;28;20112;-56
2022/06/10 08:52:54;;;;;;;9.10;5.03;;;;;;;;;;5092818;28;20473;-55
2022/06/10 08:55:20;;;;;;;10.55;5.00;;;;;;;;;;5091907;28;20058;-58
2022/06/10 08:57:48;;;;;;;12.38;5.65;;;;;;;;;;5092547;28;20551;-58
2022/06/10 09:00:15;;;;;;;9.02;5.22;;;;;;;;;;5091846;28;20035;-55
2022/06/10 09:02:48;;;;;;;11.88;5.82;;;;;;;;;;5092178;28;20366;-57
2022/06/10 09:05:31;;;;;;;11.52;5.55;;;;;;;;;;5092513;28;20024;-55
2022/06/10 09:08:00;;;;;;;13.00;5.85;;;;;;;;;;5091951;28;20089;-56
2022/06/10 09:10:30;;;;;;;9.88;5.57;;;;;;;;;;5092233;28;20735;-58
2022/06/10 09:12:57;;;;;;;11.25;6.43;;;;;;;;;;5091648;28;20044;-54
2022/06/10 09:15:25;;;;;;;11.13;6.15;;;;;;;;;;5092321;28;20552;-55
2022/06/10 09:17:55;;;;;;;10.93;6.55;;;;;;;;;;5092135;28;20040;-53
2022/06/10 09:20:26;;;;;;;11.23;6.13;;;;;;;;;;5091344;28;20399;-57
2022/06/10 09:22:57;;;;;;;14.43;6.72;;;;;;;;;;5092287;28;20039;-57
2022/06/10 09:25:33;;;;;;;12.02;6.40;;;;;;;;;;5091305;28;20040;-56
2022/06/10 09:28:01;;;;;;;13.20;6.63;;;;;;;;;;5092460;28;20481;-56
2022/06/10 09:30:34;;;;;;;12.23;6.15;;;;;;;;;;5092040;28;20028;-53
2022/06/10 09:33:13;;;;;;;11.27;6.35;;;;;;;;;;5091482;28;20111;-56
2022/06/10 09:35:51;;;;;;;11.32;6.47;;;;;;;;;;5092029;28;20032;-57
2022/06/10 09:38:24;;;;;;;14.13;6.90;;;;;;;;;;5091042;28;20025;-55
2022/06/10 09:40:54;;;;;;;13.23;6.85;;;;;;;;;;5092139;28;20027;-54
2022/06/10 09:43:28;;;;;;;15.05;6.88;;;;;;;;;;5091530;28;20032;-57
2022/06/10 09:46:07;;;;;;;12.15;6.55;;;;;;;;;;5091889;28;20028;-57
2022/06/10 09:48:41;;;;;;;12.63;6.90;;;;;;;;;;5091409;28;20073;-57
2022/06/10 09:51:26;;;;;;;13.45;6.88;;;;;;;;;;5091457;28;20039;-57
2022/06/10 09:54:29;;;;;;;14.48;6.85;;;;;;;;;;5091288;28;20044;-56
2022/06/10 09:57:10;;;;;;;14.48;6.97;;;;;;;;;;4994099;28;20030;-59
2022/06/10 09:59:40;;;;;;;13.02;6.75;;;;;;;;;;5086443;28;20074;-54
2022/06/10 10:02:19;;;;;;;14.30;7.05;;;;;;;;;;5095267;28;20122;-57
2022/06/10 10:05:04;;;;;;;11.05;6.80;;;;;;;;;;5096175;28;20447;-56
2022/06/10 10:07:34;;;;;;;15.10;6.68;;;;;;;;;;5095251;28;20060;-56
2022/06/10 10:10:06;;;;;;;16.25;7.10;;;;;;;;;;5095527;28;20107;-57
2022/06/10 10:12:32;;;;;;;;;;;;;;;;;;5096059;28;20028;-57
2022/06/10 10:14:59;;;;;;;14.00;6.60;;;;;;;;;;5094720;28;19904;-57
2022/06/10 10:17:39;;;;;;;16.60;6.95;;;;;;;;;;5095717;28;20036;-56
2022/06/10 10:20:08;;;;;;;17.95;7.80;;;;;;;;;;5094950;28;20422;-57
2022/06/10 10:23:11;;;;;;;19.42;7.65;;;;;;;;;;5095662;28;20032;-57
2022/06/10 10:25:40;;;;;;;15.17;6.70;;;;;;;;;;4977011;28;20039;-55
2022/06/10 10:28:14;;;;;;;15.10;6.85;;;;;;;;;;5076912;28;20552;-56
2022/06/10 10:33:54;;;;;;;17.02;7.05;;;;;;;;;;5088563;28;20058;-44
2022/06/10 10:36:32;;;;;;;19.83;7.07;;;;;;;;;;5095098;28;20051;-45
2022/06/10 10:39:00;;;;;;;16.58;7.60;;;;;;;;;;5092356;28;20043;-45
2022/06/10 10:41:27;;;;;;;25.70;8.00;;;;;;;;;;5092975;28;20598;-44
2022/06/10 10:43:59;;;;;;;21.33;7.10;;;;;;;;;;5095409;28;20028;-46
2022/06/10 10:46:29;;;;;;;20.05;7.93;;;;;;;;;;5094827;28;20028;-44
2022/06/10 10:49:00;;;;;;;24.40;8.68;;;;;;;;;;5093772;28;20028;-45
2022/06/10 10:51:33;;;;;;;22.02;8.15;;;;;;;;;;5092780;28;20081;-46
2022/06/10 10:54:08;;;;;;;21.40;7.90;;;;;;;;;;5093869;28;20495;-46
2022/06/10 10:56:39;;;;;;;25.33;8.77;;;;;;;;;;5095052;28;20070;-44
2022/06/10 10:59:06;;;;;;;23.27;8.68;;;;;;;;;;5094928;28;20036;-45
2022/06/10 11:01:50;;;;;;;29.38;8.65;;;;;;;;;;5094966;28;20374;-44
2022/06/10 11:04:29;;;;;;;23.33;9.00;;;;;;;;;;5094099;28;20036;-44
2022/06/10 11:07:19;;;;;;;25.58;8.65;;;;;;;;;;5081744;28;20367;-43
2022/06/10 11:09:48;;;;;;;22.67;8.63;;;;;;;;;;5066962;28;20067;-42
2022/06/10 11:12:20;;;;;;;79.00;14.85;;;;;;;;;;5074533;28;20470;-45
2022/06/10 11:14:48;;;;;;;40.67;11.10;;;;;;;;;;5074246;28;20039;-41
2022/06/10 11:17:18;;;;;;;36.17;9.57;;;;;;;;;;5073535;28;20477;-41
2022/06/10 11:19:50;;;;;;;51.05;12.40;;;;;;;;;;5074221;28;20028;-42
2022/06/10 11:22:39;;;;;;;1191.53;59.93;;;;;;;;;;5073513;28;20028;-59
2022/06/10 11:25:14;;;;;;;304.85;36.42;;;;;;;;;;5074509;28;20398;-46
2022/06/10 11:27:43;;;;;;;252.50;28.88;;;;;;;;;;5079678;28;20051;-42
2022/06/10 11:30:16;;;;;;;100.43;16.70;;;;;;;;;;5089746;28;20035;-42
2022/06/10 11:33:03;;;;;;;97.72;16.75;;;;;;;;;;5093807;28;20054;-44
2022/06/10 11:35:38;;;;;;;79.03;14.85;;;;;;;;;;5088581;28;21462;-44
2022/06/10 11:38:07;;;;;;;83.57;14.70;;;;;;;;;;5091751;28;20478;-45
2022/06/10 11:40:49;;;;;;;74.55;14.15;;;;;;;;;;5087730;28;20094;-43
2022/06/10 11:43:16;;;;;;;78.13;14.57;;;;;;;;;;5072005;28;20032;-42
2022/06/10 11:46:21;;;;;;;82.18;14.85;;;;;;;;;;5088480;28;20032;-43
2022/06/10 11:48:48;;;;;;;233.55;27.27;;;;;;;;;;4988856;28;20066;-46
2022/06/10 11:51:15;;;;;;;236.05;29.55;;;;;;;;;;4990382;28;20130;-41
2022/06/10 11:53:52;;;;;;;157.25;22.95;;;;;;;;;;5034498;28;20043;-46
2022/06/10 11:59:44;;;;;;;135.43;20.98;;;;;;;;;;5086827;28;20109;-44
2022/06/10 12:02:14;;;;;;;130.45;21.40;;;;;;;;;;5091047;28;20707;-46
2022/06/10 12:04:44;;;;;;;133.70;20.50;;;;;;;;;;5093524;28;20032;-41
2022/06/10 12:07:15;;;;;;;120.03;20.05;;;;;;;;;;5090185;28;20027;-46
2022/06/10 12:09:49;;;;;;;111.35;19.05;;;;;;;;;;5088496;28;20051;-44
2022/06/10 12:12:24;;;;;;;139.45;21.25;;;;;;;;;;5075883;28;20030;-47
2022/06/10 12:14:54;;;;;;;103.30;20.73;;;;;;;;;;5089333;28;20031;-44
2022/06/10 12:17:26;;;;;;;96.55;19.88;;;;;;;;;;5089103;28;20089;-46
2022/06/10 12:20:16;;;;;;;99.90;20.35;;;;;;;;;;5090482;28;20044;-43
2022/06/10 12:22:44;;;;;;;88.60;19.83;;;;;;;;;;5077527;28;20046;-43
2022/06/10 12:25:23;;;;;;;104.85;19.30;;;;;;;;;;5088620;28;20081;-45
2022/06/10 12:30:47;;;;;;;95.55;19.45;;;;;;;;;;5091072;28;20047;-42
2022/06/10 12:33:13;;;;;;;;;;;;;;;;;;5082049;28;20480;-43
2022/06/10 12:35:43;;;;;;;85.47;19.77;;;;;;;;;;5091723;28;19915;-43
2022/06/10 12:38:16;;;;;;;94.75;19.27;;;;;;;;;;5090917;28;20036;-43
2022/06/10 12:40:45;;;;;;;104.03;20.50;;;;;;;;;;5091958;28;20032;-42
2022/06/10 12:43:17;;;;;;;103.53;21.55;;;;;;;;;;5087084;28;20115;-43
2022/06/10 12:45:49;;;;;;;101.55;22.17;;;;;;;;;;5073831;28;20032;-43
2022/06/10 12:48:20;;;;;;;110.35;21.08;;;;;;;;;;5081804;28;20051;-44
2022/06/10 12:50:55;;;;;;;72.82;17.13;;;;;;;;;;5090648;28;20081;-43
2022/06/10 12:53:25;;;;;;;66.63;16.70;;;;;;;;;;5081522;28;20039;-45
2022/06/10 12:55:53;;;;;;;75.50;15.68;;;;;;;;;;5089140;28;20424;-45
2022/06/10 12:58:38;;;;;;;57.35;15.93;;;;;;;;;;5090834;28;20046;-44
2022/06/10 13:01:34;;;;;;;63.58;15.55;;;;;;;;;;5091139;28;20138;-47
2022/06/10 13:04:03;;;;;;;77.93;16.25;;;;;;;;;;4984961;28;20081;-43
2022/06/10 13:06:32;;;;;;;74.18;15.90;;;;;;;;;;4985671;28;20524;-43
2022/06/10 13:09:19;;;;;;;66.65;14.48;;;;;;;;;;5072422;28;20483;-45
2022/06/10 13:11:49;;;;;;;83.03;16.60;;;;;;;;;;5066920;28;20032;-45
2022/06/10 13:14:34;;;;;;;66.53;14.55;;;;;;;;;;5071525;28;20035;-49
2022/06/10 13:17:01;;;;;;;63.50;14.82;;;;;;;;;;5088809;28;20040;-47
2022/06/10 13:19:40;;;;;;;66.28;13.75;;;;;;;;;;5074548;28;20035;-44
2022/06/10 13:22:30;;;;;;;54.22;13.27;;;;;;;;;;5088511;28;20093;-45
2022/06/10 13:24:57;;;;;;;51.00;12.77;;;;;;;;;;5059271;28;20032;-46
2022/06/10 13:27:26;;;;;;;54.63;13.45;;;;;;;;;;5081808;28;20032;-45
2022/06/10 13:30:00;;;;;;;58.13;13.77;;;;;;;;;;5091061;28;20385;-43
2022/06/10 13:32:31;;;;;;;46.28;13.15;;;;;;;;;;5088852;28;20063;-46
2022/06/10 13:34:59;;;;;;;47.05;13.38;;;;;;;;;;5089261;28;20440;-44
2022/06/10 13:37:29;;;;;;;45.65;13.43;;;;;;;;;;5087929;28;20359;-46
2022/06/10 13:39:57;;;;;;;45.60;11.82;;;;;;;;;;5091422;28;20512;-46
2022/06/10 13:42:28;;;;;;;53.03;12.70;;;;;;;;;;5092239;28;20024;-43
2022/06/10 13:44:57;;;;;;;59.93;13.60;;;;;;;;;;5084320;28;20389;-43
2022/06/10 13:47:25;;;;;;;44.95;13.80;;;;;;;;;;5089722;28;20292;-44
2022/06/10 13:52:43;;;;;;;44.88;12.40;;;;;;;;;;5089099;28;20587;-42
2022/06/10 13:55:21;;;;;;;41.05;11.30;;;;;;;;;;5090873;28;20036;-42
2022/06/10 13:58:17;;;;;;;49.45;13.35;;;;;;;;;;5087457;28;20243;-44
2022/06/10 14:00:48;;;;;;;41.10;12.38;;;;;;;;;;5085472;28;20040;-45
2022/06/10 14:03:32;;;;;;;69.07;13.68;;;;;;;;;;5089486;28;20032;-43
2022/06/10 14:06:07;;;;;;;66.97;14.80;;;;;;;;;;5085043;28;20064;-50
2022/06/10 14:11:45;;;;;;;53.72;14.05;;;;;;;;;;5070867;28;20089;-45
2022/06/10 14:14:11;;;;;;;58.55;14.60;;;;;;;;;;5082688;28;20028;-51
2022/06/10 14:16:39;;;;;;;50.13;13.77;;;;;;;;;;5088108;28;20035;-46
2022/06/10 14:19:11;;;;;;;55.90;14.43;;;;;;;;;;5088055;28;20020;-49
2022/06/10 14:21:38;;;;;;;62.80;14.32;;;;;;;;;;5086292;28;20032;-44
2022/06/10 14:24:20;;;;;;;54.55;13.38;;;;;;;;;;5087298;28;20050;-44
2022/06/10 14:26:53;;;;;;;47.13;12.50;;;;;;;;;;5088450;28;20040;-46
2022/06/10 14:29:23;;;;;;;54.55;13.55;;;;;;;;;;5068474;28;20032;-44
2022/06/10 14:31:57;;;;;;;51.58;12.25;;;;;;;;;;5088082;28;20036;-44
2022/06/10 14:34:25;;;;;;;57.90;13.63;;;;;;;;;;5087917;28;20119;-44
2022/06/10 14:36:59;;;;;;;46.00;11.90;;;;;;;;;;5085307;28;20038;-45
2022/06/10 14:39:26;;;;;;;44.42;12.48;;;;;;;;;;5086883;28;20036;-43
2022/06/10 14:42:00;;;;;;;52.92;12.95;;;;;;;;;;5087558;28;20039;-45
2022/06/10 14:44:29;;;;;;;45.55;12.10;;;;;;;;;;5091251;28;20112;-43
2022/06/10 14:47:07;;;;;;;55.47;11.77;;;;;;;;;;5091898;28;20781;-43
2022/06/10 14:49:42;;;;;;;46.67;11.27;;;;;;;;;;5092676;28;20723;-50
2022/06/10 14:52:41;;;;;;;37.92;11.15;;;;;;;;;;5091777;28;20549;-45
2022/06/10 14:55:15;;;;;;;36.40;10.43;;;;;;;;;;5036667;28;20063;-42
2022/06/10 14:57:46;;;;;;;35.63;10.70;;;;;;;;;;5089804;28;20374;-44
2022/06/10 15:00:17;;;;;;;42.53;11.23;;;;;;;;;;5090987;28;20043;-44
2022/06/10 15:02:48;;;;;;;39.75;11.02;;;;;;;;;;5091970;28;20032;-44
2022/06/10 15:08:02;;;;;;;43.70;10.70;;;;;;;;;;5085046;28;20155;-43
2022/06/10 15:10:29;;;;;;;44.10;11.00;;;;;;;;;;5093918;28;20103;-47
2022/06/10 15:12:55;;;;;;;43.38;13.05;;;;;;;;;;5090194;28;20050;-43
2022/06/10 15:18:34;;;;;;;48.80;11.27;;;;;;;;;;5090668;28;20515;-47